Weather observations for the past three days for
New Richmond Municipal Airport
Metric (Imperial)
Date Time (cdt) Wind (kph) Vis. (km) Weather Sky Cond. Temperature (ºC) Relative Humidity Wind Chill (°C) Heat Index (°C) Pressure Precipitation (cm)
Air Dwpt 6 hour altimeter (cm) sea level (mb) 1 hr 3 hr 6 hr
Max. Min.
17 10:55 S 22 G 30 11.27 Light Rain SCT018 SCT038 BKN075 16.7 14.1 85% 75.13 0.0 0.05
17 10:35 SE 24 G 33 16.09 Rain SCT034 BKN070 OVC100 17.6 13.7 78% 75.16 0.0
17 10:15 SW 17 16.09 Mostly Cloudy SCT033 BKN042 BKN090 18.5 13.5 73% 75.23 0.0
17 09:55 S 15 16.09 Fair CLR 18.3 13.6 74% 75.23 0.0
17 09:35 S 17 16.09 Fair CLR 18.5 13.6 73% 75.21 0.0
17 09:15 S 22 G 30 16.09 Fair CLR 18.5 13.6 73% 75.21 0.0
17 08:55 S 30 G 41 16.09 Fair CLR 18.8 13.5 71% 75.18 0.0
17 08:35 S 24 G 33 16.09 Fair CLR 18.9 13.2 70% 75.18 0.0
17 08:15 SE 20 G 28 16.09 Fair CLR 17.6 12.1 70% 75.21 0.0
17 07:55 SE 13 16.09 Fair CLR 16.2 11.1 72% 75.23 0.0
17 07:35 SE 17 G 28 16.09 Fair CLR 16 10.6 71% 75.29 0.0
17 07:15 SE 19 G 28 16.09 Fair CLR 15.3 10.1 71% 75.31 0.0
17 06:55 SE 17 16.09 Fair CLR 15 9.7 17.6 14.6 71% 75.31 0.0
17 06:35 SE 17 16.09 Fair CLR 14.8 9.6 71% 75.34 0.0
17 06:15 SE 20 16.09 Fair CLR 14.8 9.5 71% 75.34 0.0
17 05:55 SE 19 16.09 Fair CLR 15.1 9.5 69% 75.36 0.0
17 05:35 S 20 16.09 Fair CLR 15.3 9.5 69% 75.36 0.0
17 05:15 S 19 16.09 Fair CLR 15.5 9.5 68% 75.36 0.0
17 04:55 S 19 16.09 Fair CLR 15.6 9.5 67% 75.36 0.0
17 04:35 SE 15 16.09 Fair CLR 15.8 9.3 66% 75.36 0.0
17 04:15 S 22 16.09 Fair CLR 16 9.3 65% 75.36 0.0
17 03:55 S 22 16.09 Fair CLR 16.2 9.3 64% 75.36 0.0
17 03:35 S 20 16.09 Fair CLR 16.4 9.2 63% 75.36 0.0
17 03:15 S 22 16.09 Fair CLR 16.5 9.2 62% 75.39 0.0
17 02:55 S 20 16.09 Fair CLR 16.8 9.1 61% 75.41 0.0
17 02:35 S 20 G 30 16.09 Fair CLR 17 9.1 60% 75.41 0.0
17 02:15 S 24 16.09 Fair CLR 17.2 9.1 59% 75.44 0.0
17 01:55 S 24 G 30 16.09 Fair CLR 17.5 9 58% 75.46 0.0
17 01:35 S 24 G 33 16.09 Fair CLR 17.5 8.8 57% 75.46 0.0
17 01:10 S 24 G 33 16.09 Fair CLR 17.3 8.5 56% 75.49 0.0
17 00:55 S 20 G 31 16.09 Fair CLR 17.5 8.4 22.7 17.3 55% 75.49 0.0
17 00:35 S 19 16.09 Fair CLR 17.5 8.1 54% 75.49 0.0
16 23:55 SE 19 G 28 16.09 Fair CLR 17.6 7.6 52% 75.49 0.0
16 23:35 SE 20 G 28 16.09 Fair CLR 17.9 7.5 51% 75.51 0.0
16 23:15 SE 17 G 28 16.09 Fair CLR 18.1 7.4 50% 75.54 0.0
16 22:55 SE 20 G 30 16.09 Fair CLR 18.5 7.2 48% 75.54 0.0
16 22:35 SE 20 G 33 16.09 Fair CLR 18.5 7 47% 75.54 0.0
16 22:15 SE 20 G 26 16.09 Fair CLR 18.5 6.7 46% 75.54 0.0
16 21:55 SE 17 G 26 16.09 Fair CLR 18.7 6.5 45% 75.54 0.0
16 21:35 SE 20 G 30 16.09 Fair CLR 19.1 6.2 43% 75.54 0.0
16 21:15 SE 20 G 31 16.09 Fair CLR 19.6 6 41% 75.54 0.0
16 20:55 SE 19 G 28 16.09 Fair CLR 19.5 5.8 41% 75.51 0.0
16 20:35 SE 13 16.09 Fair CLR 19.5 5.6 40% 75.54 0.0
16 20:15 SE 19 16.09 Fair CLR 19.9 5.3 39% 75.54 0.0
16 19:55 SE 15 16.09 Fair CLR 20.6 5 36% 75.54 0.0
16 19:35 SE 17 16.09 Fair CLR 21.2 5 35% 75.57 0.0
16 19:15 SE 17 16.09 Fair CLR 22.1 5.1 33% 75.57 0.0
16 18:55 SE 17 16.09 Fair CLR 22.7 5.1 24.6 22.5 32% 75.59 0.0
16 18:35 SE 19 16.09 Fair CLR 23 5 31% 75.59 0.0
16 18:15 SE 19 16.09 Fair CLR 23.6 4.9 30% 75.59 0.0
16 17:55 SE 17 16.09 Fair CLR 23.7 4.5 29% 75.59 0.0
16 17:35 S 15 16.09 Fair CLR 24.1 4.4 28% 25 75.59 0.0
16 17:15 S 24 G 31 16.09 Fair CLR 24.2 4 27% 25 75.57 0.0
16 16:55 S 15 16.09 Fair CLR 24.3 3.7 26% 25 75.59 0.0
16 16:35 SE 19 G 30 16.09 Fair CLR 24.3 4.3 27% 25 75.59 0.0
16 16:15 SE 20 G 30 16.09 Fair CLR 24.6 4 26% 25 75.57 0.0
16 15:55 SE 15 16.09 Fair CLR 24.5 3.9 26% 25 75.57 0.0
16 15:35 SE 13 16.09 Fair CLR 24.2 2.5 24% 25 75.59 0.0
16 15:15 S 11 16.09 Fair CLR 24.3 2.7 24% 25 75.62 0.0
16 14:55 SE 6 16.09 Fair CLR 23.7 2.8 26% 75.62 0.0
16 14:35 S 15 16.09 Fair CLR 24.3 4 27% 25 75.62 0.0
16 14:15 S 17 G 26 16.09 Fair CLR 23.8 3.9 27% 75.64 0.0
16 13:55 S 17 16.09 Fair CLR 23.3 3.4 27% 75.64 0.0
16 13:35 S 9 16.09 Fair CLR 23.2 4 29% 75.67 0.0
16 13:15 S 9 16.09 Fair CLR 22.7 4.2 30% 75.67 0.0
16 12:55 S 11 16.09 Fair CLR 22.7 3.9 22.8 2.7 29% 75.69 0.0
16 12:35 S 13 16.09 Fair CLR 22.3 4.4 31% 75.69 0.0
16 12:15 S 11 16.09 Fair CLR 21.8 4.7 33% 75.72 0.0
16 11:55 S 9 16.09 Fair CLR 21.5 4.3 33% 75.72 0.0
16 11:35 S 9 16.09 Fair CLR 21 5.5 36% 75.74 0.0
16 11:15 S 11 16.09 Fair CLR 20.4 5.3 37% 75.72 0.0
16 10:55 S 7 16.09 Fair CLR 19.3 6.6 44% 75.72 0.0
16 10:35 SW 7 16.09 Fair CLR 19.1 7.7 48% 75.72 0.0
16 10:15 S 7 16.09 Fair CLR 18.2 7.7 51% 75.72 0.0
16 09:55 SW 6 16.09 Fair CLR 17.4 7.9 54% 75.72 0.0
16 09:35 S 7 16.09 Fair CLR 16.3 8.1 59% 75.72 0.0
16 09:15 S 6 16.09 Fair CLR 15 7.9 63% 75.72 0.0
16 08:55 Calm 16.09 Fair CLR 13.2 8 71% 75.72 0.0
16 08:35 Calm 16.09 Fair CLR 11.4 8.1 80% 75.69 0.0
16 08:15 Calm 16.09 Fair CLR 9.1 7.7 91% 75.69 0.0
16 07:55 Calm 16.09 Fair CLR 7.4 7.4 100% 75.69 0.0
16 07:35 Calm 16.09 Fair CLR 6.1 6.1 100% 75.69 0.0
16 07:15 Calm 16.09 Fair CLR 4.3 4.3 100% 75.67 0.0
16 06:55 Calm 11.27 Fair CLR 2.8 2.8 6.8 2.2 100% 75.64 0.0
16 06:35 Calm 4.83 Fog/Mist CLR 3.7 3.7 100% 75.62 0.0
16 06:15 Calm 1.61 Fog/Mist VV007 2.8 2.8 100% 75.62 0.0
16 05:55 Calm 4.02 Fog/Mist CLR 4.6 4.6 100% 75.59 0.0
16 05:35 Calm 16.09 Fair CLR 4.2 4.2 100% 75.59 0.0
16 05:15 Calm 8.05 Fog/Mist CLR 3.8 3.8 100% 75.59 0.0
16 04:55 Calm 11.27 Fair CLR 3.7 3.7 100% 75.59 0.0
16 04:35 N 6 16.09 Fair CLR 4.3 4.3 100% 75.59 0.0
16 04:15 Calm 16.09 Fair CLR 4 4 100% 75.57 0.0
16 03:55 Calm 16.09 Fair CLR 4.8 4.8 100% 75.57 0.0
16 03:35 Calm 11.27 Fair CLR 4.9 4.9 100% 75.57 0.0
16 03:15 Calm 16.09 Fair CLR 4.4 4.2 99% 75.54 0.0
16 02:55 Calm 16.09 Fair CLR 4.8 4.3 97% 75.54 0.0
16 02:35 Calm 16.09 Fair CLR 5.5 5.1 97% 75.54 0.0
16 02:15 Calm 16.09 Fair CLR 5.7 5.4 98% 75.54 0.0
16 01:55 Calm 16.09 Fair CLR 6 5.7 98% 75.57 0.0
16 01:35 Calm 16.09 Fair CLR 5.2 4.6 96% 75.54 0.0
16 01:15 Calm 16.09 Fair CLR 6.5 6 97% 75.54 0.0
16 00:55 Calm 16.09 Fair CLR 5.8 4.9 17.9 5.6 94% 75.54 0.0
16 00:35 Calm 16.09 Fair CLR 6.9 5.9 93% 75.54 0.0
16 00:15 Calm 16.09 Fair CLR 6.8 4.9 88% 75.54 0.0
15 23:55 Calm 16.09 Fair CLR 8.5 6.3 86% 75.51 0.0
15 23:35 SE 6 16.09 Fair CLR 8.6 6.5 87% 75.51 0.0
15 23:15 Calm 16.09 Fair CLR 9 6.8 86% 75.51 0.0
15 22:55 Calm 16.09 Fair CLR 9 7 87% 75.51 0.0
15 22:35 Calm 16.09 Fair CLR 9.3 7 86% 75.51 0.0
15 22:15 Calm 16.09 Fair CLR 9.7 5.8 77% 75.49 0.0
15 21:55 Calm 16.09 Fair CLR 9.8 6.7 81% 75.49 0.0
15 21:35 Calm 16.09 Fair CLR 10.9 8.7 86% 75.49 0.0
15 21:15 Calm 16.09 Fair CLR 11.3 7.4 77% 75.49 0.0
15 20:55 Calm 16.09 Fair CLR 11.3 8.3 82% 75.49 0.0
15 20:35 Calm 16.09 Fair CLR 13.5 7.2 66% 75.49 0.0
15 20:15 Calm 16.09 Fair CLR 14.4 5.9 57% 75.44 0.0
15 19:55 Calm 16.09 Fair CLR 16.3 5.5 49% 75.44 0.0
15 19:35 Calm 16.09 Fair CLR 17.3 5.5 46% 75.44 0.0
15 19:15 Calm 16.09 Fair CLR 17.6 5.5 45% 75.46 0.0
15 18:55 Calm 16.09 Fair CLR 18 5.1 18.6 14.6 43% 75.46 0.0
15 18:35 NE 6 16.09 Fair CLR 18.2 5.7 44% 75.49 0.0
15 18:15 Calm 16.09 Fair CLR 18.3 5.5 43% 75.49 0.0
15 17:55 Calm 16.09 Fair CLR 18.3 5.6 43% 75.46 0.0
15 17:35 S 7 16.09 Fair CLR 18.5 5.7 43% 75.49 0.0
15 17:15 E 7 16.09 Fair CLR 18.5 5.8 44% 75.49 0.0
15 16:55 Calm 16.09 Fair CLR 17.9 6.2 46% 75.49 0.0
15 16:35 S 6 16.09 Fair CLR 18 6.5 47% 75.49 0.0
15 16:15 Calm 16.09 Fair CLR 18 6.6 47% 75.49 0.0
15 15:55 Calm 16.09 Fair CLR 17 6.4 50% 75.49 0.0
15 15:35 SW 6 16.09 Fair CLR 17.2 6.7 50% 75.54 0.0
15 15:15 SE 6 16.09 Fair CLR 17.4 6.8 50% 75.57 0.0
15 14:55 S 6 16.09 Fair CLR 16.4 6.6 53% 75.59 0.0
15 14:35 Calm 16.09 Partly Cloudy SCT120 16.4 7.8 57% 75.57 0.0
15 14:15 Calm 16.09 Partly Cloudy SCT120 15.8 7.8 59% 75.62 0.0
15 13:55 Calm 16.09 Fair CLR 15.5 7.6 60% 75.62 0.0
15 13:35 N 6 16.09 Fair CLR 15 7.9 63% 75.62 0.0
15 13:15 NW 6 16.09 Fair CLR 15.1 7.8 62% 75.62 0.0
15 12:55 NW 7 16.09 Fair CLR 14.4 7.5 14.4 4.3 63% 75.62 0.0
15 12:35 Calm 16.09 Fair CLR 13.5 7.3 66% 75.64 0.0
15 12:15 Calm 16.09 Fair CLR 13 7.5 70% 75.67 0.0
15 11:55 Calm 16.09 Fair CLR 12.3 7 70% 75.67 0.0
15 11:35 NE 7 16.09 Fair CLR 10.9 6.4 74% 75.64 0.0
15 11:15 NE 7 16.09 Partly Cloudy SCT009 9.7 6.4 80% 9 75.67 0.0
15 10:55 N 9 16.09 Mostly Cloudy BKN007 9.4 6.1 80% 8 75.67 0.0
15 10:35 NE 7 16.09 Overcast OVC007 8 5.8 86% 7 75.69 0.0
15 10:15 NE 7 16.09 Overcast OVC005 7.1 5.5 90% 6 75.67 0.0
15 09:55 E 7 16.09 Overcast OVC005 6.4 5.8 96% 5 75.64 0.0
15 09:35 N 6 11.27 Overcast OVC003 5.9 5.9 100% 75.64 0.0
15 09:15 NE 7 11.27 Overcast OVC003 5.5 5.5 100% 4 75.62 0.0
15 08:55 NE 9 4.02 Fog/Mist OVC001 5.1 5.1 100% 3 75.62 0.0
15 08:35 NE 7 1.21 Fog/Mist OVC001 5 5 100% 4 75.62 0.0
15 08:15 NE 9 1.21 Fog/Mist OVC001 4.8 4.8 100% 3 75.62 0.0
15 07:55 N 7 0.40 Fog OVC001 4.8 4.8 100% 3 75.62 0.0
15 07:35 NE 7 0.40 Fog OVC001 4.5 4.5 100% 3 75.62 0.0
15 07:15 N 6 0.40 Fog OVC001 4.6 4.6 100% 75.62 0.0
15 06:55 NE 7 1.61 Fog/Mist BKN001 4.3 4.1 9 4.1 99% 3 75.59 0.0
15 06:35 N 9 16.09 Fair CLR 4.9 4.6 98% 3 75.59 0.0
15 06:15 N 9 16.09 Fair CLR 4.1 3.6 97% 2 75.62 0.0
15 05:55 N 7 16.09 Fair CLR 4.4 3.9 97% 3 75.62 0.0
15 05:35 N 7 16.09 Fair CLR 5.3 4.5 95% 4 75.62 0.0
15 05:15 N 7 16.09 Fair CLR 5.9 4.6 91% 5 75.62 0.0
15 04:55 E 6 16.09 Fair CLR 6.5 5.5 93% 75.64 0.0
15 04:35 Calm 16.09 Fair CLR 6.5 5.5 93% 75.62 0.0
15 04:15 Calm 16.09 Fair CLR 6.8 5.5 92% 75.59 0.0
15 03:55 NE 6 16.09 Fair CLR 6.9 5.5 91% 75.54 0.0
15 03:35 NE 9 16.09 Fair CLR 6.6 5.5 93% 5 75.49 0.0
15 03:15 NE 7 16.09 Fair CLR 7 5.6 91% 6 75.54 0.0
15 02:55 NE 7 16.09 Fair CLR 6.2 5.3 94% 5 75.54 0.0
15 02:35 Calm 16.09 Fair CLR 7 5.8 92% 75.57 0.0
15 02:15 NE 6 16.09 Fair CLR 7 5.4 90% 75.54 0.0
15 01:55 Calm 16.09 Fair CLR 7.4 5.7 89% 75.49 0.0
15 01:35 N 7 16.09 Fair CLR 8 6 87% 7 75.49 0.0
15 01:15 Calm 16.09 Fair CLR 8.3 6.2 87% 75.54 0.0
15 00:55 NE 7 16.09 Partly Cloudy SCT120 9.1 6.7 15 9.1 85% 8 75.54 0.0
15 00:35 N 7 16.09 Overcast OVC120 9.8 7 83% 9 75.54 0.0
15 00:15 N 6 16.09 Overcast OVC110 10.1 7.2 82% 75.57 0.0
14 23:55 NE 7 16.09 Overcast OVC110 10.3 7.5 83% 75.59 0.0
14 23:35 N 9 16.09 Mostly Cloudy BKN110 10.5 7.5 82% 75.62 0.0
14 23:15 N 9 16.09 Mostly Cloudy BKN110 10.6 8.3 86% 75.59 0.0
14 22:55 N 15 16.09 Partly Cloudy SCT110 11.1 9 87% 75.54 0.0
14 22:35 N 9 16.09 Partly Cloudy SCT110 11.1 9.2 88% 75.54 0.0
14 22:15 NE 7 16.09 Fair CLR 11.5 9.3 86% 75.51 0.0
14 21:55 NE 6 16.09 Fair CLR 11.5 9.1 85% 75.57 0.0
14 21:35 Calm 16.09 Fair CLR 11.2 9 86% 75.54 0.0
14 21:15 NW 7 16.09 Fair CLR 11.8 9.1 84% 75.54 0.0
14 20:55 N 9 16.09 Partly Cloudy SCT120 12.9 9.4 79% 75.49 0.0
14 20:35 NW 9 16.09 Mostly Cloudy BKN120 13 9.8 81% 75.51 0.0
14 20:15 W 6 16.09 Overcast OVC120 13.2 10.2 82% 75.49 0.0
14 19:55 NW 6 16.09 Overcast OVC120 13.8 10.4 80% 75.46 0.0
14 19:35 W 6 16.09 Overcast OVC120 14.2 10.6 79% 75.49 0.0
14 19:15 W 6 16.09 Mostly Cloudy BKN120 14.9 10.5 75% 75.46 0.0
14 18:55 NW 11 16.09 Mostly Cloudy BKN120 15 10.5 16.4 14 75% 75.46 0.0
14 18:35 NW 9 16.09 Partly Cloudy SCT110 15.3 10.2 72% 75.44 0.0
14 18:15 Calm 16.09 Partly Cloudy SCT120 15.6 10.7 73% 75.44 0.0
14 17:55 NW 7 16.09 Partly Cloudy SCT120 16.3 10.8 70% 75.46 0.0
14 17:35 Calm 16.09 Partly Cloudy SCT120 16.1 11.1 72% 75.46 0.0
14 17:15 N 6 16.09 Partly Cloudy SCT019 SCT120 15.5 11 75% 75.44 0.0
14 16:55 Calm 16.09 Fair CLR 15.7 10.8 73% 75.44 0.0
14 16:35 N 7 16.09 Partly Cloudy SCT110 15.1 10.8 76% 75.46 0.0
14 16:15 NE 7 16.09 Mostly Cloudy BKN110 14.6 10.9 79% 75.44 0.0
14 15:55 Calm 16.09 Fair CLR 14.5 10.6 78% 75.51 0.0
14 15:35 N 9 16.09 Fair CLR 14.7 10.7 77% 75.49 0.0
14 15:15 NW 11 16.09 Partly Cloudy SCT110 14.6 10.8 78% 75.54 0.0
14 14:55 NW 13 16.09 Mostly Cloudy SCT015 BKN095 15 10.8 76% 75.46 0.0
14 14:35 N 11 16.09 Partly Cloudy SCT013 15.7 11.1 74% 75.44 0.0
14 14:15 NW 9 16.09 Partly Cloudy SCT013 15.5 11.3 76% 75.46 0.0
14 13:55 NW 15 16.09 Partly Cloudy SCT013 15.2 11.3 78% 75.46 0.0
14 13:35 Calm 16.09 Fair CLR 14 11.3 84% 75.44 0.0
14 13:15 NW 6 16.09 Partly Cloudy SCT011 14.2 11.3 83% 75.49 0.0
14 12:55 NW 9 16.09 Overcast BKN011 OVC015 14.5 11.5 15.8 8.9 82% 75.49 0.0
14 12:35 S 6 16.09 Mostly Cloudy BKN011 15 11.7 81% 75.49 0.0
14 12:15 SW 11 16.09 Partly Cloudy SCT009 SCT015 15.6 12.1 80% 75.54 0.0
14 11:55 S 13 16.09 Mostly Cloudy BKN007 14.7 12 84% 75.51 0.0
14 11:35 S 13 16.09 Overcast OVC005 13.3 12 92% 75.51 0.0
Date Time (cdt) Wind (kph) Vis. (km) Weather Sky Cond. Air Dwpt Max. Min. Relative Humidity Wind Chill (°C) Heat Index (°C) altimeter (cm) sea level (mb) 1 hr 3 hr 6 hr
6 hour
Temperature (ºC) Pressure Precipitation (cm)